Time,TemperatureF,DewpointF,PressureIn,WindDirection,WindDirectionDegrees,WindSpeedMPH,WindSpeedGustMPH,Humidity,HourlyPrecipIn,Conditions,Clouds,dailyrainin,SolarRadiationWatts/m^2,SoftwareType,DateUTC
2013-01-25 00:00:00,52.8,49.7,30.27,North,3,0.0,0.0,89,0.00,,---,0.00,0.00,VWS V14.00,2013-01-25 05:00:00,
2013-01-25 00:30:00,52.3,49.5,30.27,North,3,0.0,0.0,90,0.00,,---,0.00,0.00,VWS V14.00,2013-01-25 05:30:00,
2013-01-25 01:00:00,51.5,48.7,30.28,North,358,0.0,5.0,90,0.00,,---,0.00,0.00,VWS V14.00,2013-01-25 06:00:00,
2013-01-25 01:30:00,52.0,49.2,30.28,North,358,0.0,0.0,90,0.00,,---,0.00,0.00,VWS V14.00,2013-01-25 06:30:00,
2013-01-25 02:00:00,51.5,48.7,30.27,North,358,0.0,0.0,90,0.00,,---,0.00,0.00,VWS V14.00,2013-01-25 07:00:00,
2013-01-25 02:30:00,51.6,48.8,30.26,North,358,0.0,1.0,90,0.00,,---,0.00,0.00,VWS V14.00,2013-01-25 07:30:00,
2013-01-25 03:00:00,52.0,49.2,30.26,North,358,0.0,2.0,90,0.00,,---,0.00,0.00,VWS V14.00,2013-01-25 08:00:00,
2013-01-25 03:30:00,51.9,49.1,30.25,North,358,0.0,1.0,90,0.00,,---,0.00,0.00,VWS V14.00,2013-01-25 08:30:00,
2013-01-25 04:00:00,51.6,48.8,30.25,North,358,0.0,0.0,90,0.00,,---,0.00,0.00,VWS V14.00,2013-01-25 09:00:00,
2013-01-25 04:30:00,51.4,48.6,30.25,North,358,0.0,0.0,90,0.00,,---,0.00,0.00,VWS V14.00,2013-01-25 09:30:00,
2013-01-25 05:00:00,51.5,48.7,30.25,North,358,0.0,0.0,90,0.00,,---,0.00,0.00,VWS V14.00,2013-01-25 10:00:00,
2013-01-25 05:30:00,51.2,48.4,30.26,North,358,0.0,0.0,90,0.00,,---,0.00,0.00,VWS V14.00,2013-01-25 10:30:00,
2013-01-25 06:00:00,51.3,48.5,30.27,North,358,0.0,2.0,90,0.00,,---,0.00,0.00,VWS V14.00,2013-01-25 11:00:00,
2013-01-25 06:30:00,51.0,48.5,30.28,North,358,0.0,1.0,91,0.00,,---,0.00,0.00,VWS V14.00,2013-01-25 11:30:00,
2013-01-25 07:00:00,50.9,48.4,30.28,North,358,0.0,1.0,91,0.00,,---,0.00,11.00,VWS V14.00,2013-01-25 12:00:00,
2013-01-25 07:30:00,51.9,49.4,30.29,North,358,0.0,2.0,91,0.00,,---,0.00,44.00,VWS V14.00,2013-01-25 12:30:00,
2013-01-25 08:00:00,53.6,51.3,30.30,North,358,0.0,2.0,92,0.00,,---,0.00,67.00,VWS V14.00,2013-01-25 13:00:00,
2013-01-25 08:30:00,56.5,54.2,30.30,North,349,3.0,5.0,92,0.00,,---,0.00,302.00,VWS V14.00,2013-01-25 13:30:00,
2013-01-25 09:00:00,60.4,56.8,30.30,NNW,334,0.0,5.0,88,0.00,,---,0.00,325.00,VWS V14.00,2013-01-25 14:00:00,
2013-01-25 09:30:00,64.0,57.0,30.30,NNW,334,0.0,3.0,78,0.00,,---,0.00,427.00,VWS V14.00,2013-01-25 14:30:00,
2013-01-25 10:00:00,66.9,56.8,30.30,NNW,329,0.0,4.0,70,0.00,,---,0.00,325.00,VWS V14.00,2013-01-25 15:00:00,
2013-01-25 10:30:00,70.2,57.0,30.30,WNW,288,2.0,9.0,63,0.00,,---,0.00,559.00,VWS V14.00,2013-01-25 15:30:00,
2013-01-25 11:00:00,72.0,56.9,30.28,West,271,1.0,7.0,59,0.00,,---,0.00,601.00,VWS V14.00,2013-01-25 16:00:00,
2013-01-25 11:30:00,74.0,55.3,30.27,West,271,0.0,5.0,52,0.00,,---,0.00,635.00,VWS V14.00,2013-01-25 16:30:00,
2013-01-25 12:00:00,74.6,54.8,30.25,West,267,0.0,6.0,50,0.00,,---,0.00,649.00,VWS V14.00,2013-01-25 17:00:00,
2013-01-25 12:30:00,75.3,55.4,30.23,West,267,0.0,6.0,50,0.00,,---,0.00,652.00,VWS V14.00,2013-01-25 17:30:00,
2013-01-25 13:00:00,74.2,54.4,30.22,West,267,2.0,5.0,50,0.00,,---,0.00,638.00,VWS V14.00,2013-01-25 18:00:00,
2013-01-25 13:30:00,76.1,55.6,30.21,West,268,0.0,9.0,49,0.00,,---,0.00,610.00,VWS V14.00,2013-01-25 18:30:00,
2013-01-25 14:00:00,77.1,57.0,30.19,West,268,0.0,3.0,50,0.00,,---,0.00,566.00,VWS V14.00,2013-01-25 19:00:00,
2013-01-25 14:30:00,74.8,57.1,30.19,West,272,2.0,6.0,54,0.00,,---,0.00,487.00,VWS V14.00,2013-01-25 19:30:00,
2013-01-25 15:00:00,72.7,56.1,30.19,West,281,0.0,7.0,56,0.00,,---,0.00,434.00,VWS V14.00,2013-01-25 20:00:00,
2013-01-25 15:30:00,71.8,56.2,30.19,WNW,285,5.0,6.0,58,0.00,,---,0.00,334.00,VWS V14.00,2013-01-25 20:30:00,
2013-01-25 16:00:00,71.0,56.4,30.19,WNW,286,0.0,5.0,60,0.00,,---,0.00,251.00,VWS V14.00,2013-01-25 21:00:00,
2013-01-25 16:30:00,70.2,56.6,30.19,WNW,286,0.0,3.0,62,0.00,,---,0.00,153.00,VWS V14.00,2013-01-25 21:30:00,
2013-01-25 17:00:00,69.1,56.8,30.19,WNW,287,0.0,3.0,65,0.00,,---,0.00,32.00,VWS V14.00,2013-01-25 22:00:00,
2013-01-25 17:30:00,67.6,57.1,30.19,WNW,287,0.0,2.0,69,0.00,,---,0.00,11.00,VWS V14.00,2013-01-25 22:30:00,
2013-01-25 18:00:00,65.9,56.2,30.19,WNW,287,0.0,0.0,71,0.00,,---,0.00,0.00,VWS V14.00,2013-01-25 23:00:00,
2013-01-25 18:30:00,63.5,56.5,30.20,WNW,287,0.0,0.0,78,0.00,,---,0.00,0.00,VWS V14.00,2013-01-25 23:30:00,
2013-01-25 19:00:00,62.2,56.0,30.21,WNW,287,0.0,0.0,80,0.00,,---,0.00,0.00,VWS V14.00,2013-01-26 00:00:00,
2013-01-25 19:30:00,60.6,55.4,30.21,WNW,287,0.0,0.0,83,0.00,,---,0.00,0.00,VWS V14.00,2013-01-26 00:30:00,
2013-01-25 20:00:00,60.0,55.5,30.21,WNW,287,0.0,0.0,85,0.00,,---,0.00,0.00,VWS V14.00,2013-01-26 01:00:00,
2013-01-25 20:30:00,59.3,54.8,30.21,WNW,287,0.0,0.0,85,0.00,,---,0.00,0.00,VWS V14.00,2013-01-26 01:30:00,
2013-01-25 21:00:00,58.4,54.2,30.21,WNW,287,0.0,0.0,86,0.00,,---,0.00,0.00,VWS V14.00,2013-01-26 02:00:00,
2013-01-25 21:30:00,57.9,54.1,30.22,WNW,287,0.0,0.0,87,0.00,,---,0.00,0.00,VWS V14.00,2013-01-26 02:30:00,
2013-01-25 22:00:00,57.3,53.8,30.22,WNW,287,0.0,0.0,88,0.00,,---,0.00,0.00,VWS V14.00,2013-01-26 03:00:00,
2013-01-25 22:30:00,57.3,54.1,30.21,WNW,287,0.0,0.0,89,0.00,,---,0.00,0.00,VWS V14.00,2013-01-26 03:30:00,
2013-01-25 23:00:00,56.9,53.7,30.21,WNW,287,0.0,0.0,89,0.00,,---,0.00,0.00,VWS V14.00,2013-01-26 04:00:00,
2013-01-25 23:30:00,56.1,52.9,30.21,WNW,287,0.0,0.0,89,0.00,,---,0.00,0.00,VWS V14.00,2013-01-26 04:30:00,